createdAt,value
2022-09-28T00:01:08.282Z,18.37
2022-09-28T00:03:36.358Z,18.38
2022-09-28T00:06:08.247Z,18.38
2022-09-28T00:08:36.714Z,18.20
2022-09-28T00:11:06.364Z,18.34
2022-09-28T00:13:34.568Z,18.34
2022-09-28T00:16:14.172Z,18.05
2022-09-28T00:18:41.886Z,18.08
2022-09-28T00:21:13.373Z,17.80
2022-09-28T00:24:00.676Z,17.98
2022-09-28T00:26:30.686Z,18.04
2022-09-28T00:29:00.759Z,18.14
2022-09-28T00:31:32.742Z,18.11
2022-09-28T00:34:01.971Z,17.95
2022-09-28T00:36:31.713Z,18.03
2022-09-28T00:39:03.168Z,18.16
2022-09-28T00:41:30.938Z,18.03
2022-09-28T00:44:37.507Z,17.76
2022-09-28T00:47:13.577Z,17.65
2022-09-28T00:49:43.609Z,17.76
2022-09-28T00:52:20.177Z,17.38
2022-09-28T00:54:49.157Z,17.53
2022-09-28T00:57:17.123Z,17.79
2022-09-28T00:59:44.675Z,17.62
2022-09-28T01:02:12.274Z,17.68
2022-09-28T01:04:39.994Z,17.42
2022-09-28T01:07:08.992Z,17.40
2022-09-28T01:09:39.133Z,17.64
2022-09-28T01:12:07.575Z,17.33
2022-09-28T01:14:35.166Z,17.33
2022-09-28T01:17:48.913Z,17.84
2022-09-28T01:20:39.546Z,17.83
2022-09-28T01:23:54.743Z,17.96
2022-09-28T01:26:40.857Z,17.99
2022-09-28T01:29:49.113Z,18.02
2022-09-28T01:32:19.138Z,18.17
2022-09-28T01:35:02.723Z,18.26
2022-09-28T01:37:40.084Z,17.66
2022-09-28T01:40:09.989Z,17.90
2022-09-28T01:42:39.973Z,17.78
2022-09-28T01:45:14.697Z,17.91
2022-09-28T01:47:44.131Z,17.89
2022-09-28T01:50:16.078Z,17.95
2022-09-28T01:52:55.287Z,17.22
2022-09-28T01:55:37.388Z,17.39
2022-09-28T01:58:37.371Z,17.79
2022-09-28T02:01:13.982Z,17.80
2022-09-28T02:03:55.833Z,17.88
2022-09-28T02:06:29.563Z,17.54
2022-09-28T02:09:02.925Z,17.55
2022-09-28T02:11:44.995Z,16.56
2022-09-28T02:14:18.254Z,16.90
2022-09-28T02:16:54.295Z,17.56
2022-09-28T02:19:28.785Z,17.62
2022-09-28T02:22:02.756Z,17.75
2022-09-28T02:25:08.513Z,17.54
2022-09-28T02:27:58.480Z,17.58
2022-09-28T02:30:26.535Z,17.33
2022-09-28T02:32:59.128Z,17.05
2022-09-28T02:35:27.085Z,17.02
2022-09-28T02:37:55.275Z,17.17
2022-09-28T02:40:29.783Z,17.34
2022-09-28T02:43:31.149Z,17.39
2022-09-28T02:46:28.565Z,17.34
2022-09-28T02:49:22.161Z,17.23
2022-09-28T02:52:03.886Z,16.96
2022-09-28T02:54:47.652Z,16.83
2022-09-28T02:57:36.956Z,17.09
2022-09-28T03:00:15.141Z,17.13
2022-09-28T03:03:04.106Z,16.98
2022-09-28T03:05:55.773Z,17.00
2022-09-28T03:08:46.816Z,16.94
2022-09-28T03:11:25.118Z,17.32
2022-09-28T03:13:53.605Z,17.41
2022-09-28T03:16:26.187Z,17.32
2022-09-28T03:18:53.706Z,17.28
2022-09-28T03:21:21.165Z,17.23
2022-09-28T03:23:48.527Z,17.18
2022-09-28T03:26:17.330Z,16.87
2022-09-28T03:28:44.666Z,16.84
2022-09-28T03:31:18.097Z,16.74
2022-09-28T03:33:45.484Z,16.74
2022-09-28T03:36:15.045Z,16.90
2022-09-28T03:38:42.564Z,16.83
2022-09-28T03:41:11.159Z,16.89
2022-09-28T03:43:41.504Z,16.75
2022-09-28T03:46:09.058Z,17.03
2022-09-28T03:48:42.171Z,16.92
2022-09-28T03:51:12.236Z,17.02
2022-09-28T03:53:40.171Z,17.12
2022-09-28T03:56:13.452Z,17.23
2022-09-28T03:58:42.401Z,17.17
2022-09-28T04:01:16.755Z,16.74
2022-09-28T04:03:47.018Z,16.86
2022-09-28T04:06:15.270Z,17.01
2022-09-28T04:08:43.548Z,17.04
2022-09-28T04:11:11.867Z,16.95
2022-09-28T04:13:39.375Z,17.07
2022-09-28T04:16:10.825Z,16.90
2022-09-28T04:18:39.953Z,16.98
2022-09-28T04:21:18.832Z,17.12
2022-09-28T04:23:53.067Z,17.10
2022-09-28T04:26:26.679Z,16.82
2022-09-28T04:29:13.149Z,16.99
2022-09-28T04:31:50.761Z,17.08
2022-09-28T04:34:21.684Z,16.21
2022-09-28T04:36:50.230Z,16.28
2022-09-28T04:39:19.458Z,16.19
2022-09-28T04:41:53.731Z,16.81
2022-09-28T04:44:21.075Z,16.83
2022-09-28T04:46:50.665Z,16.64
2022-09-28T04:49:30.402Z,17.10
2022-09-28T04:52:18.717Z,17.34
2022-09-28T04:54:49.045Z,17.47
2022-09-28T04:57:17.152Z,17.37
2022-09-28T04:59:44.994Z,17.25
2022-09-28T05:02:15.394Z,17.32
2022-09-28T05:05:01.811Z,17.40
2022-09-28T05:08:04.411Z,17.24
2022-09-28T05:10:32.067Z,17.46
2022-09-28T05:13:02.145Z,17.30
2022-09-28T05:15:31.060Z,16.93
2022-09-28T05:18:02.143Z,16.87
2022-09-28T05:20:42.446Z,17.01
2022-09-28T05:23:11.692Z,16.83
2022-09-28T05:25:40.130Z,16.77
2022-09-28T05:28:26.135Z,17.37
2022-09-28T05:31:13.932Z,17.03
2022-09-28T05:33:58.169Z,17.63
2022-09-28T05:36:27.444Z,17.86
2022-09-28T05:38:54.956Z,17.32
2022-09-28T05:41:22.472Z,17.55
2022-09-28T05:43:52.051Z,17.87
2022-09-28T05:46:21.234Z,18.01
2022-09-28T05:48:51.264Z,18.04
2022-09-28T05:51:19.370Z,17.84
2022-09-28T05:53:47.279Z,17.70
2022-09-28T05:56:16.326Z,18.09
2022-09-28T05:58:45.266Z,18.04
2022-09-28T06:01:13.562Z,17.62
2022-09-28T06:03:41.070Z,17.72
2022-09-28T06:06:08.458Z,18.49
2022-09-28T06:08:36.525Z,18.17
2022-09-28T06:11:33.528Z,18.20
2022-09-28T06:14:07.679Z,18.23
2022-09-28T06:16:38.238Z,17.68
2022-09-28T06:19:10.487Z,18.11
2022-09-28T06:21:59.154Z,18.60
2022-09-28T06:24:27.090Z,18.89
2022-09-28T06:26:54.684Z,18.56
2022-09-28T06:29:23.095Z,18.52
2022-09-28T06:31:51.496Z,18.89
2022-09-28T06:34:19.258Z,19.17
2022-09-28T06:37:05.102Z,18.72
2022-09-28T06:39:35.429Z,18.47
2022-09-28T06:42:03.982Z,18.66
2022-09-28T06:44:52.066Z,18.86
2022-09-28T06:47:33.593Z,19.24
2022-09-28T06:50:12.311Z,19.38
2022-09-28T06:53:09.606Z,19.39
2022-09-28T06:56:01.313Z,19.23
2022-09-28T06:58:29.551Z,18.90
2022-09-28T07:00:59.513Z,19.56
2022-09-28T07:03:28.478Z,19.82
2022-09-28T07:06:14.558Z,20.09
2022-09-28T07:09:30.711Z,20.33
2022-09-28T07:12:35.298Z,20.59
2022-09-28T07:15:07.483Z,20.67
2022-09-28T07:17:47.282Z,19.60
2022-09-28T07:20:19.751Z,19.35
2022-09-28T07:22:53.754Z,19.13
2022-09-28T07:25:23.888Z,19.92
2022-09-28T07:28:14.880Z,18.85
2022-09-28T07:31:09.714Z,18.99
2022-09-28T07:34:00.140Z,20.22
2022-09-28T07:36:35.482Z,19.94
2022-09-28T07:39:03.771Z,20.78
2022-09-28T07:41:34.137Z,21.54
2022-09-28T07:44:06.286Z,22.30
2022-09-28T07:46:36.955Z,21.28
2022-09-28T07:49:36.431Z,21.60
2022-09-28T07:52:26.369Z,21.01
2022-09-28T07:55:07.677Z,21.72
2022-09-28T07:58:01.826Z,21.35
2022-09-28T08:00:50.276Z,20.62
2022-09-28T08:03:20.076Z,21.09
2022-09-28T08:05:48.146Z,20.68
2022-09-28T08:08:15.716Z,20.90
2022-09-28T08:10:46.801Z,21.68
2022-09-28T08:13:45.645Z,20.12
2022-09-28T08:16:34.587Z,20.75
2022-09-28T08:19:15.055Z,20.84
2022-09-28T08:21:45.441Z,21.95
2022-09-28T08:24:18.178Z,21.48
2022-09-28T08:26:47.416Z,21.02
2022-09-28T08:29:17.248Z,20.48
2022-09-28T08:31:48.570Z,21.10
2022-09-28T08:34:38.163Z,21.76
2022-09-28T08:37:07.257Z,22.76
2022-09-28T08:40:17.050Z,23.31
2022-09-28T08:43:04.430Z,22.95
2022-09-28T08:45:51.269Z,23.76
2022-09-28T08:49:25.291Z,23.72
2022-09-28T08:52:37.814Z,24.48
2022-09-28T08:55:33.139Z,25.70
2022-09-28T08:58:28.365Z,24.13
2022-09-28T09:00:56.156Z,26.69
2022-09-28T09:03:39.558Z,28.36
2022-09-28T09:06:35.371Z,24.07
2022-09-28T09:09:59.352Z,25.50
2022-09-28T09:13:03.197Z,27.35
2022-09-28T09:15:56.438Z,27.47
2022-09-28T09:18:55.931Z,27.11
2022-09-28T09:21:43.879Z,28.98
2022-09-28T09:24:40.723Z,26.78
2022-09-28T09:27:45.143Z,26.21
2022-09-28T09:30:20.513Z,27.45
2022-09-28T09:33:13.362Z,27.36
2022-09-28T09:36:37.632Z,27.50
2022-09-28T09:39:44.924Z,27.05
2022-09-28T09:42:53.683Z,25.14
2022-09-28T09:46:07.243Z,24.83
2022-09-28T09:48:56.863Z,25.53
2022-09-28T09:51:47.240Z,25.78
2022-09-28T09:54:24.810Z,25.51
2022-09-28T09:56:57.445Z,23.10
2022-09-28T09:59:45.825Z,25.05
2022-09-28T10:02:45.108Z,22.57
2022-09-28T10:05:34.974Z,22.87
2022-09-28T10:08:15.647Z,22.89
2022-09-28T10:10:51.647Z,23.25
2022-09-28T10:13:20.800Z,23.71
2022-09-28T10:15:51.528Z,23.13
2022-09-28T10:18:30.347Z,23.81
2022-09-28T10:21:23.307Z,22.60
2022-09-28T10:24:02.508Z,23.41
2022-09-28T10:26:39.334Z,24.41
2022-09-28T10:29:25.072Z,24.48
2022-09-28T10:31:55.796Z,24.91
2022-09-28T10:34:28.780Z,25.81
2022-09-28T10:37:08.581Z,25.95
2022-09-28T10:40:34.189Z,25.94
2022-09-28T10:43:07.796Z,24.89
2022-09-28T10:45:37.531Z,24.33
2022-09-28T10:48:14.090Z,23.92
2022-09-28T10:50:42.503Z,23.27
2022-09-28T10:53:20.504Z,24.00
2022-09-28T10:56:22.928Z,24.23
2022-09-28T10:58:58.099Z,24.49
2022-09-28T11:01:44.174Z,22.91
2022-09-28T11:04:21.730Z,23.79
2022-09-28T11:06:50.197Z,23.67
2022-09-28T11:09:32.724Z,24.34
2022-09-28T11:12:07.178Z,22.83
2022-09-28T11:14:43.782Z,22.73
2022-09-28T11:17:31.442Z,24.14
2022-09-28T11:20:27.435Z,24.93
2022-09-28T11:22:59.264Z,25.56
2022-09-28T11:25:31.434Z,24.50
2022-09-28T11:28:04.548Z,25.31
2022-09-28T11:30:48.423Z,24.99
2022-09-28T11:33:46.785Z,25.41
2022-09-28T11:37:27.321Z,26.74
2022-09-28T11:40:33.651Z,24.94
2022-09-28T11:43:15.912Z,25.93
2022-09-28T11:46:01.827Z,25.93
2022-09-28T11:48:48.631Z,25.09
2022-09-28T11:51:23.583Z,24.21
2022-09-28T11:53:59.963Z,24.02
2022-09-28T11:56:30.349Z,23.58
2022-09-28T11:59:05.612Z,24.51
2022-09-28T12:02:01.108Z,25.59
2022-09-28T12:05:26.996Z,25.09
2022-09-28T12:07:54.457Z,25.09
2022-09-28T12:11:11.199Z,24.99
2022-09-28T12:14:10.589Z,24.45
2022-09-28T12:17:04.862Z,25.44
2022-09-28T12:19:42.585Z,25.16
2022-09-28T12:22:21.162Z,24.54
2022-09-28T12:24:54.568Z,23.74
2022-09-28T12:27:30.183Z,24.67
2022-09-28T12:30:16.387Z,24.27
2022-09-28T12:32:51.806Z,23.96
2022-09-28T12:35:53.222Z,24.36
2022-09-28T12:38:20.653Z,23.90
2022-09-28T12:40:57.638Z,23.89
2022-09-28T12:43:43.228Z,23.62
2022-09-28T12:46:46.618Z,24.63
2022-09-28T12:52:38.199Z,25.73
2022-09-28T12:55:25.962Z,24.81
2022-09-28T12:58:16.336Z,24.59
2022-09-28T13:01:15.189Z,24.44
2022-09-28T13:04:12.719Z,24.93
2022-09-28T13:07:00.255Z,24.11
2022-09-28T13:09:33.101Z,24.90
2022-09-28T13:12:38.131Z,25.50
2022-09-28T13:15:08.909Z,24.20
2022-09-28T13:18:05.163Z,24.78
2022-09-28T13:20:50.666Z,25.38
2022-09-28T13:23:28.890Z,24.83
2022-09-28T13:26:44.958Z,25.24
2022-09-28T13:30:43.474Z,24.40
2022-09-28T13:42:17.044Z,24.47
2022-09-28T13:45:30.938Z,24.42
2022-09-28T15:01:15.577Z,24.42
2022-09-28T15:04:30.771Z,23.18
2022-09-28T15:08:10.976Z,23.93
2022-09-28T15:14:48.899Z,23.95
2022-09-28T15:17:29.938Z,23.97
2022-09-28T15:20:11.802Z,23.72
2022-09-28T15:22:46.752Z,23.32
2022-09-28T15:25:19.908Z,23.26
2022-09-28T15:27:54.261Z,23.46
2022-09-28T15:30:51.369Z,23.89
2022-09-28T15:33:57.286Z,23.90
2022-09-28T15:37:40.406Z,24.03
2022-09-28T15:41:06.993Z,24.27
2022-09-28T15:43:39.623Z,23.10
2022-09-28T15:46:18.981Z,23.63
2022-09-28T15:48:55.322Z,23.50
2022-09-28T15:51:27.578Z,23.52
2022-09-28T15:54:03.004Z,23.79
2022-09-28T15:56:31.418Z,23.68
2022-09-28T15:59:14.037Z,23.39
2022-09-28T16:01:44.156Z,23.19
2022-09-28T16:04:37.504Z,22.96
2022-09-28T16:07:11.948Z,23.34
2022-09-28T16:09:59.938Z,22.92
2022-09-28T16:12:40.478Z,23.26
2022-09-28T16:15:14.993Z,23.06
2022-09-28T16:17:43.088Z,23.22
2022-09-28T16:20:19.471Z,23.48
2022-09-28T16:22:48.252Z,22.75
2022-09-28T16:25:20.129Z,23.27
2022-09-28T16:27:47.685Z,23.39
2022-09-28T16:30:31.945Z,23.15
2022-09-28T16:33:03.546Z,23.24
2022-09-28T16:35:46.605Z,23.23
2022-09-28T16:38:19.617Z,23.26
2022-09-28T16:40:54.824Z,23.04
2022-09-28T16:43:27.297Z,22.51
2022-09-28T16:45:59.404Z,22.40
2022-09-28T16:48:30.353Z,22.30
2022-09-28T16:50:58.422Z,22.67
2022-09-28T16:53:45.305Z,22.38
2022-09-28T16:56:13.513Z,22.21
2022-09-28T16:58:42.507Z,22.38
2022-09-28T17:01:12.551Z,22.40
2022-09-28T17:03:46.985Z,21.80
2022-09-28T17:06:15.391Z,21.99
2022-09-28T17:08:43.459Z,21.80
2022-09-28T17:11:24.558Z,21.93
2022-09-28T17:13:59.079Z,21.84
2022-09-28T17:19:24.581Z,21.53
2022-09-28T17:21:52.767Z,21.48
2022-09-28T17:24:20.876Z,21.57
2022-09-28T17:26:51.121Z,21.45
2022-09-28T17:29:19.280Z,21.68
2022-09-28T17:31:48.154Z,21.99
2022-09-28T17:34:16.828Z,21.58
2022-09-28T17:36:45.485Z,21.49
2022-09-28T17:39:15.023Z,21.34
2022-09-28T17:41:42.816Z,21.61
2022-09-28T17:44:10.853Z,21.37
2022-09-28T17:46:46.378Z,21.13
2022-09-28T17:49:14.706Z,21.58
2022-09-28T17:51:42.458Z,21.53
2022-09-28T17:54:10.559Z,21.70
2022-09-28T17:56:38.076Z,21.63
2022-09-28T17:59:10.177Z,21.02
2022-09-28T18:01:39.331Z,21.27
2022-09-28T18:04:09.072Z,21.17
2022-09-28T18:06:39.656Z,20.85
2022-09-28T18:09:08.858Z,21.18
2022-09-28T18:11:42.387Z,21.13
2022-09-28T18:14:11.360Z,21.38
2022-09-28T18:16:39.149Z,21.36
2022-09-28T18:19:06.768Z,21.30
2022-09-28T18:21:34.200Z,21.11
2022-09-28T18:24:01.915Z,21.38
2022-09-28T18:26:29.303Z,20.94
2022-09-28T18:28:56.642Z,21.10
2022-09-28T18:31:24.068Z,20.64
2022-09-28T18:33:59.000Z,21.11
2022-09-28T18:36:30.677Z,20.33
2022-09-28T18:39:01.513Z,20.33
2022-09-28T18:41:29.335Z,20.35
2022-09-28T18:44:02.323Z,20.27
2022-09-28T18:46:31.551Z,20.40
2022-09-28T18:48:59.053Z,20.68
2022-09-28T18:51:26.858Z,20.40
2022-09-28T18:53:54.499Z,20.14
2022-09-28T18:56:21.977Z,20.46
2022-09-28T18:58:52.746Z,20.41
2022-09-28T19:01:30.451Z,20.58
2022-09-28T19:04:00.453Z,20.37
2022-09-28T19:06:28.957Z,20.23
2022-09-28T19:08:56.935Z,19.61
2022-09-28T19:11:25.391Z,19.89
2022-09-28T19:13:54.454Z,19.92
2022-09-28T19:16:24.517Z,20.41
2022-09-28T19:18:53.609Z,20.45
2022-09-28T19:21:23.342Z,20.31
2022-09-28T19:23:52.042Z,20.39
2022-09-28T19:26:23.234Z,20.40
2022-09-28T19:28:50.796Z,20.28
2022-09-28T19:31:18.582Z,19.96
2022-09-28T19:33:46.633Z,19.81
2022-09-28T19:36:17.924Z,19.45
2022-09-28T19:38:45.642Z,19.84
2022-09-28T19:41:49.366Z,19.85
2022-09-28T19:44:27.658Z,19.70
2022-09-28T19:46:55.303Z,19.46
2022-09-28T19:49:24.800Z,18.44
2022-09-28T19:52:13.792Z,18.28
2022-09-28T19:54:44.522Z,18.31
2022-09-28T19:57:14.099Z,18.37
2022-09-28T19:59:41.618Z,18.95
2022-09-28T20:02:10.753Z,18.80
2022-09-28T20:04:38.191Z,19.21
2022-09-28T20:07:05.786Z,19.23
2022-09-28T20:09:33.190Z,18.98
2022-09-28T20:12:00.739Z,19.10
2022-09-28T20:14:32.857Z,18.98
2022-09-28T20:17:03.843Z,18.76
2022-09-28T20:19:31.227Z,18.07
2022-09-28T20:22:02.089Z,18.64
2022-09-28T20:24:29.449Z,18.82
2022-09-28T20:26:56.953Z,19.01
2022-09-28T20:29:24.498Z,18.60
2022-09-28T20:31:52.076Z,18.62
2022-09-28T20:34:19.578Z,18.99
2022-09-28T20:36:46.957Z,19.30
2022-09-28T20:39:14.437Z,19.56
2022-09-28T20:41:42.098Z,19.45
2022-09-28T20:44:09.916Z,19.22
2022-09-28T20:46:38.232Z,18.90
2022-09-28T20:49:07.190Z,18.85
2022-09-28T20:51:34.734Z,19.07
2022-09-28T20:54:02.560Z,19.14
2022-09-28T20:56:37.829Z,19.25
2022-09-28T20:59:07.408Z,18.84
2022-09-28T21:01:35.200Z,18.95
2022-09-28T21:04:05.945Z,19.29
2022-09-28T21:06:35.846Z,18.88
2022-09-28T21:09:05.466Z,18.92
2022-09-28T21:11:36.680Z,18.89
2022-09-28T21:14:06.875Z,18.93
2022-09-28T21:16:55.209Z,18.69
2022-09-28T21:19:24.358Z,18.78
2022-09-28T21:21:51.952Z,18.33
2022-09-28T21:24:19.808Z,17.48
2022-09-28T21:26:47.488Z,17.05
2022-09-28T21:29:15.508Z,17.55
2022-09-28T21:31:46.851Z,17.91
2022-09-28T21:34:19.478Z,18.46
2022-09-28T21:36:53.443Z,18.79
2022-09-28T21:39:21.221Z,18.89
2022-09-28T21:41:48.778Z,18.90
2022-09-28T21:44:16.320Z,19.04
2022-09-28T21:46:43.847Z,19.11
2022-09-28T21:49:12.735Z,19.07
2022-09-28T21:51:40.286Z,18.84
2022-09-28T21:54:08.269Z,17.97
2022-09-28T21:56:35.885Z,17.55
2022-09-28T21:59:03.480Z,17.66
2022-09-28T22:01:31.766Z,17.57
2022-09-28T22:03:59.469Z,17.47
2022-09-28T22:06:30.561Z,16.94
2022-09-28T22:08:58.404Z,17.69
2022-09-28T22:11:28.424Z,17.94
2022-09-28T22:13:59.029Z,17.77
2022-09-28T22:16:30.123Z,17.18
2022-09-28T22:18:58.737Z,16.99
2022-09-28T22:21:32.705Z,17.11
2022-09-28T22:24:02.747Z,17.37
2022-09-28T22:26:33.090Z,17.82
2022-09-28T22:29:07.248Z,17.77
2022-09-28T22:31:37.390Z,17.76
2022-09-28T22:34:23.474Z,17.82
2022-09-28T22:36:50.966Z,17.93
2022-09-28T22:39:18.493Z,17.94
2022-09-28T22:41:46.172Z,17.78
2022-09-28T22:44:13.694Z,17.68
2022-09-28T22:46:41.285Z,17.74
2022-09-28T22:49:10.393Z,17.88
2022-09-28T22:51:40.003Z,18.00
2022-09-28T22:54:07.445Z,18.24
2022-09-28T22:56:34.896Z,18.01
2022-09-28T22:59:02.450Z,17.99
2022-09-28T23:01:30.683Z,17.94
2022-09-28T23:03:58.341Z,18.20
2022-09-28T23:06:27.874Z,16.87
2022-09-28T23:08:55.383Z,16.88
2022-09-28T23:11:23.298Z,16.64
2022-09-28T23:13:52.425Z,16.67
2022-09-28T23:16:20.700Z,17.16
2022-09-28T23:18:49.367Z,17.37
2022-09-28T23:21:19.177Z,17.79
2022-09-28T23:23:52.267Z,17.69
2022-09-28T23:26:25.287Z,17.65
2022-09-28T23:28:53.868Z,18.04
2022-09-28T23:31:28.085Z,17.97
2022-09-28T23:34:00.464Z,17.81
2022-09-28T23:36:28.348Z,17.71
2022-09-28T23:38:56.358Z,17.88
2022-09-28T23:41:23.907Z,17.82
2022-09-28T23:43:51.439Z,17.70
2022-09-28T23:46:20.942Z,17.96
2022-09-28T23:48:50.007Z,17.49
2022-09-28T23:51:17.629Z,17.37
2022-09-28T23:53:45.809Z,17.49
2022-09-28T23:56:14.659Z,17.80
2022-09-28T23:58:42.844Z,17.37
